createdAt,value
2023-03-31T00:00:36.948Z,98450.91
2023-03-31T00:03:10.985Z,98446.53
2023-03-31T00:05:48.099Z,98442.50
2023-03-31T00:08:21.378Z,98444.41
2023-03-31T00:10:54.490Z,98446.75
2023-03-31T00:13:27.813Z,98445.72
2023-03-31T00:16:04.079Z,98436.69
2023-03-31T00:18:38.194Z,98439.16
2023-03-31T00:21:14.826Z,98440.13
2023-03-31T00:23:47.783Z,98437.25
2023-03-31T00:26:22.283Z,98428.44
2023-03-31T00:28:55.621Z,98407.44
2023-03-31T00:31:30.651Z,98405.53
2023-03-31T00:34:03.753Z,98388.94
2023-03-31T00:36:45.883Z,98387.69
2023-03-31T00:39:20.357Z,98378.56
2023-03-31T00:41:53.256Z,98367.34
2023-03-31T00:44:27.378Z,98368.81
2023-03-31T00:47:07.141Z,98359.34
2023-03-31T00:49:45.038Z,98363.75
2023-03-31T00:52:22.559Z,98356.69
2023-03-31T00:54:59.329Z,98357.44
2023-03-31T00:57:37.109Z,98350.50
2023-03-31T01:00:14.587Z,98350.75
2023-03-31T01:02:53.396Z,98344.59
2023-03-31T01:05:30.367Z,98343.72
2023-03-31T01:08:05.917Z,98348.75
2023-03-31T01:10:42.936Z,98337.31
2023-03-31T01:13:19.100Z,98333.50
2023-03-31T01:15:52.283Z,98332.50
2023-03-31T01:18:28.079Z,98315.56
2023-03-31T01:21:19.997Z,98326.41
2023-03-31T01:24:32.252Z,98321.41
2023-03-31T01:27:22.131Z,98320.84
2023-03-31T01:30:21.583Z,98313.91
2023-03-31T01:33:40.001Z,98310.09
2023-03-31T01:36:42.738Z,98303.63
2023-03-31T01:39:35.594Z,98309.13
2023-03-31T01:42:16.447Z,98297.59
2023-03-31T01:45:01.997Z,98290.47
2023-03-31T01:47:40.763Z,98285.44
2023-03-31T01:50:23.523Z,98284.44
2023-03-31T01:53:04.105Z,98278.84
2023-03-31T01:55:38.196Z,98279.31
2023-03-31T01:58:17.990Z,98282.88
2023-03-31T02:00:57.137Z,98269.16
2023-03-31T02:03:34.547Z,98263.19
2023-03-31T02:06:13.533Z,98260.31
2023-03-31T02:08:50.735Z,98255.97
2023-03-31T02:11:24.598Z,98249.47
2023-03-31T02:14:02.871Z,98248.50
2023-03-31T02:16:42.049Z,98262.66
2023-03-31T02:19:19.181Z,98266.38
2023-03-31T02:21:52.501Z,98245.69
2023-03-31T02:24:28.939Z,98245.16
2023-03-31T02:27:07.874Z,98245.44
2023-03-31T02:29:42.763Z,98229.03
2023-03-31T02:32:22.561Z,98236.38
2023-03-31T02:34:56.444Z,98228.81
2023-03-31T02:37:31.797Z,98214.47
2023-03-31T02:40:10.515Z,98218.13
2023-03-31T02:42:44.306Z,98210.75
2023-03-31T02:45:45.361Z,98200.94
2023-03-31T02:48:23.086Z,98197.22
2023-03-31T02:51:33.487Z,98188.91
2023-03-31T02:54:26.565Z,98195.25
2023-03-31T02:57:28.457Z,98198.06
2023-03-31T03:00:10.250Z,98190.78
2023-03-31T03:03:03.863Z,98188.56
2023-03-31T03:05:49.763Z,98184.94
2023-03-31T03:09:08.945Z,98173.97
2023-03-31T03:11:52.937Z,98170.59
2023-03-31T03:14:33.083Z,98160.22
2023-03-31T03:17:11.133Z,98155.84
2023-03-31T03:19:45.483Z,98156.38
2023-03-31T03:22:18.270Z,98160.75
2023-03-31T03:24:51.670Z,98159.50
2023-03-31T03:27:24.550Z,98148.91
2023-03-31T03:29:57.326Z,98151.84
2023-03-31T03:32:31.003Z,98151.97
2023-03-31T03:35:06.735Z,98143.59
2023-03-31T03:37:39.768Z,98144.56
2023-03-31T03:40:13.130Z,98141.94
2023-03-31T03:42:45.888Z,98133.78
2023-03-31T03:45:19.052Z,98130.41
2023-03-31T03:47:51.846Z,98131.38
2023-03-31T03:50:26.119Z,98130.00
2023-03-31T03:52:58.874Z,98118.53
2023-03-31T03:55:31.861Z,98113.63
2023-03-31T03:58:05.596Z,98108.97
2023-03-31T04:00:38.656Z,98095.94
2023-03-31T04:03:11.550Z,98082.03
2023-03-31T04:05:45.730Z,98076.31
2023-03-31T04:08:19.786Z,98069.22
2023-03-31T04:10:52.751Z,98062.88
2023-03-31T04:13:25.645Z,98053.94
2023-03-31T04:15:58.584Z,98050.69
2023-03-31T04:18:31.420Z,98043.69
2023-03-31T04:21:05.732Z,98034.84
2023-03-31T04:23:42.903Z,98029.41
2023-03-31T04:26:17.333Z,98023.38
2023-03-31T04:28:50.846Z,98025.63
2023-03-31T04:31:26.194Z,98031.88
2023-03-31T04:34:02.289Z,98027.19
2023-03-31T04:36:42.610Z,98032.41
2023-03-31T04:39:16.377Z,98029.66
2023-03-31T04:41:49.450Z,98024.41
2023-03-31T04:44:22.314Z,98018.84
2023-03-31T04:46:55.459Z,97999.53
2023-03-31T04:49:28.376Z,97981.50
2023-03-31T04:52:03.164Z,97972.84
2023-03-31T04:56:01.858Z,97971.75
2023-03-31T04:58:34.939Z,97981.88
2023-03-31T05:01:08.023Z,97970.75
2023-03-31T05:03:41.437Z,97953.47
2023-03-31T05:06:14.812Z,97958.19
2023-03-31T05:08:47.583Z,97947.34
2023-03-31T05:11:21.955Z,97937.81
2023-03-31T05:13:54.842Z,97933.47
2023-03-31T05:16:27.769Z,97937.81
2023-03-31T05:19:00.730Z,97932.72
2023-03-31T05:21:33.614Z,97931.16
2023-03-31T05:24:06.652Z,97917.31
2023-03-31T05:26:41.238Z,97915.22
2023-03-31T05:29:13.971Z,97902.19
2023-03-31T05:31:47.096Z,97907.94
2023-03-31T05:34:20.114Z,97903.16
2023-03-31T05:36:53.919Z,97898.34
2023-03-31T05:39:27.344Z,97885.66
2023-03-31T05:42:01.618Z,97869.72
2023-03-31T05:44:34.662Z,97866.06
2023-03-31T05:47:07.615Z,97860.16
2023-03-31T05:49:40.658Z,97864.97
2023-03-31T05:52:13.654Z,97863.59
2023-03-31T05:54:46.374Z,97873.91
2023-03-31T05:57:20.724Z,97885.44
2023-03-31T05:59:53.726Z,97876.31
2023-03-31T06:02:26.830Z,97885.03
2023-03-31T06:05:10.574Z,97885.50
2023-03-31T06:07:43.533Z,97876.81
2023-03-31T06:10:16.590Z,97865.63
2023-03-31T06:12:51.021Z,97867.63
2023-03-31T06:15:23.922Z,97872.88
2023-03-31T06:17:57.088Z,97887.00
2023-03-31T06:20:30.215Z,97880.59
2023-03-31T06:23:03.575Z,97881.09
2023-03-31T06:25:50.420Z,97884.34
2023-03-31T06:28:25.786Z,97875.00
2023-03-31T06:31:02.906Z,97877.94
2023-03-31T06:33:36.575Z,97872.69
2023-03-31T06:36:10.081Z,97867.63
2023-03-31T06:38:43.279Z,97859.59
2023-03-31T06:41:18.419Z,97864.84
2023-03-31T06:43:52.606Z,97858.47
2023-03-31T06:46:26.142Z,97859.00
2023-03-31T06:48:58.947Z,97855.91
2023-03-31T06:51:32.759Z,97852.84
2023-03-31T06:54:06.279Z,97836.69
2023-03-31T06:56:39.419Z,97837.88
2023-03-31T06:59:13.538Z,97827.16
2023-03-31T07:01:48.872Z,97824.97
2023-03-31T07:04:21.790Z,97826.25
2023-03-31T07:06:54.666Z,97812.44
2023-03-31T07:09:27.499Z,97789.28
2023-03-31T07:12:00.402Z,97779.03
2023-03-31T07:14:34.560Z,97773.56
2023-03-31T07:17:07.334Z,97768.59
2023-03-31T07:19:42.136Z,97760.41
2023-03-31T07:22:14.999Z,97754.34
2023-03-31T07:24:47.857Z,97752.34
2023-03-31T07:27:20.713Z,97761.66
2023-03-31T07:29:55.154Z,97758.56
2023-03-31T07:32:29.119Z,97743.69
2023-03-31T07:35:02.235Z,97738.25
2023-03-31T07:37:36.620Z,97737.81
2023-03-31T07:40:11.297Z,97733.03
2023-03-31T07:42:45.960Z,97726.34
2023-03-31T07:45:22.475Z,97717.22
2023-03-31T07:47:56.009Z,97709.47
2023-03-31T07:50:29.025Z,97701.09
2023-03-31T07:53:03.646Z,97701.88
2023-03-31T07:55:36.533Z,97723.28
2023-03-31T07:58:11.756Z,97712.91
2023-03-31T08:00:45.971Z,97701.16
2023-03-31T08:03:18.967Z,97688.13
2023-03-31T08:05:52.937Z,97672.16
2023-03-31T08:08:25.781Z,97667.84
2023-03-31T08:10:58.685Z,97647.06
2023-03-31T08:13:31.637Z,97624.78
2023-03-31T08:16:06.914Z,97637.75
2023-03-31T08:18:39.950Z,97651.78
2023-03-31T08:21:12.896Z,97663.28
2023-03-31T08:23:45.714Z,97651.03
2023-03-31T08:26:19.161Z,97656.16
2023-03-31T08:28:52.892Z,97664.22
2023-03-31T08:31:29.333Z,97662.34
2023-03-31T08:34:02.881Z,97659.72
2023-03-31T08:36:36.187Z,97656.19
2023-03-31T08:39:09.181Z,97657.25
2023-03-31T08:41:52.319Z,97651.53
2023-03-31T08:44:30.705Z,97660.69
2023-03-31T08:47:08.400Z,97661.28
2023-03-31T08:49:46.881Z,97667.50
2023-03-31T08:52:24.504Z,97655.41
2023-03-31T08:55:00.790Z,97650.41
2023-03-31T08:57:40.980Z,97640.56
2023-03-31T09:00:16.494Z,97643.75
2023-03-31T09:02:57.478Z,97651.00
2023-03-31T09:05:59.536Z,97646.50
2023-03-31T09:08:37.085Z,97645.56
2023-03-31T09:11:22.730Z,97631.41
2023-03-31T09:14:06.754Z,97623.63
2023-03-31T09:16:46.447Z,97641.59
2023-03-31T09:19:31.501Z,97643.38
2023-03-31T09:22:07.560Z,97658.94
2023-03-31T09:24:48.652Z,97644.84
2023-03-31T09:27:22.298Z,97659.44
2023-03-31T09:29:59.399Z,97661.75
2023-03-31T09:32:33.295Z,97651.78
2023-03-31T09:35:19.185Z,97638.25
2023-03-31T09:37:52.825Z,97652.84
2023-03-31T09:40:28.304Z,97659.25
2023-03-31T09:43:03.258Z,97663.41
2023-03-31T09:45:36.890Z,97668.16
2023-03-31T09:48:15.936Z,97667.28
2023-03-31T09:50:53.491Z,97663.34
2023-03-31T09:53:33.738Z,97679.09
2023-03-31T09:56:09.292Z,97660.03
2023-03-31T09:58:43.624Z,97664.00
2023-03-31T10:01:16.864Z,97664.50
2023-03-31T10:03:53.717Z,97668.56
2023-03-31T10:06:28.117Z,97638.63
2023-03-31T10:09:03.528Z,97651.66
2023-03-31T10:11:36.929Z,97642.84
2023-03-31T10:14:15.179Z,97645.13
2023-03-31T10:16:51.215Z,97634.63
2023-03-31T10:19:26.675Z,97637.84
2023-03-31T10:22:02.512Z,97626.03
2023-03-31T10:24:40.008Z,97624.63
2023-03-31T10:27:22.215Z,97615.09
2023-03-31T10:29:57.506Z,97610.34
2023-03-31T10:32:31.907Z,97608.34
2023-03-31T10:35:08.188Z,97611.19
2023-03-31T10:37:42.592Z,97619.78
2023-03-31T10:40:20.771Z,97623.53
2023-03-31T10:43:02.681Z,97636.72
2023-03-31T10:45:38.880Z,97627.31
2023-03-31T10:48:20.068Z,97628.72
2023-03-31T10:50:53.856Z,97611.56
2023-03-31T10:53:27.983Z,97642.00
2023-03-31T10:56:12.413Z,97652.63
2023-03-31T10:59:06.016Z,97634.03
2023-03-31T11:01:52.041Z,97611.16
2023-03-31T11:04:44.218Z,97621.56
2023-03-31T11:07:37.262Z,97622.78
2023-03-31T11:10:32.469Z,97616.97
2023-03-31T11:13:09.062Z,97618.06
2023-03-31T11:15:50.809Z,97602.97
2023-03-31T11:18:38.381Z,97615.16
2023-03-31T11:21:22.067Z,97602.09
2023-03-31T11:24:06.481Z,97590.84
2023-03-31T11:26:47.502Z,97584.69
2023-03-31T11:29:33.590Z,97549.22
2023-03-31T11:32:28.332Z,97564.78
2023-03-31T11:35:16.524Z,97555.25
2023-03-31T11:38:08.007Z,97567.75
2023-03-31T11:40:50.632Z,97545.56
2023-03-31T11:43:31.457Z,97564.03
2023-03-31T11:46:09.781Z,97577.81
2023-03-31T11:48:47.464Z,97589.97
2023-03-31T11:51:26.160Z,97607.47
2023-03-31T11:54:04.388Z,97607.63
2023-03-31T11:56:41.144Z,97604.66
2023-03-31T11:59:19.517Z,97599.59
2023-03-31T12:01:59.162Z,97591.53
2023-03-31T12:04:35.915Z,97589.66
2023-03-31T12:07:22.529Z,97594.59
2023-03-31T12:10:06.090Z,97602.00
2023-03-31T12:12:45.022Z,97603.06
2023-03-31T12:15:23.597Z,97623.69
2023-03-31T12:18:02.093Z,97646.41
2023-03-31T12:20:42.194Z,97643.72
2023-03-31T12:23:19.684Z,97643.22
2023-03-31T12:25:59.809Z,97630.94
2023-03-31T12:28:33.776Z,97588.94
2023-03-31T12:31:12.985Z,97602.97
2023-03-31T12:33:52.148Z,97591.38
2023-03-31T12:36:42.773Z,97570.47
2023-03-31T12:39:24.580Z,97569.75
2023-03-31T12:42:15.048Z,97566.88
2023-03-31T12:45:01.097Z,97569.53
2023-03-31T12:47:50.163Z,97559.63
2023-03-31T12:50:52.291Z,97554.25
2023-03-31T12:53:36.821Z,97553.75
2023-03-31T12:56:09.869Z,97558.00
2023-03-31T12:58:45.515Z,97543.16
2023-03-31T13:01:20.260Z,97540.13
2023-03-31T13:04:11.306Z,97537.41
2023-03-31T13:06:56.871Z,97534.81
2023-03-31T13:09:47.990Z,97532.50
2023-03-31T13:12:23.559Z,97536.50
2023-03-31T13:15:00.211Z,97534.88
2023-03-31T13:17:36.418Z,97534.72
2023-03-31T13:20:38.122Z,97519.50
2023-03-31T13:23:20.573Z,97509.81
2023-03-31T13:25:54.385Z,97518.81
2023-03-31T13:28:34.322Z,97509.25
2023-03-31T13:31:07.893Z,97507.13
2023-03-31T13:33:58.124Z,97500.19
2023-03-31T13:36:58.116Z,97497.75
2023-03-31T13:40:08.213Z,97507.75
2023-03-31T13:43:16.220Z,97503.59
2023-03-31T13:46:22.580Z,97507.41
2023-03-31T13:49:06.497Z,97500.22
2023-03-31T13:51:51.714Z,97500.44
2023-03-31T13:55:00.884Z,97501.38
2023-03-31T13:58:05.408Z,97496.03
2023-03-31T14:00:51.182Z,97501.72
2023-03-31T14:03:49.407Z,97494.84
2023-03-31T14:06:28.460Z,97491.13
2023-03-31T14:09:07.585Z,97501.63
2023-03-31T14:11:40.521Z,97487.88
2023-03-31T14:14:15.827Z,97489.38
2023-03-31T14:16:53.609Z,97477.75
2023-03-31T14:19:56.351Z,97478.19
2023-03-31T14:22:39.104Z,97487.28
2023-03-31T14:25:21.649Z,97468.25
2023-03-31T14:28:05.248Z,97457.44
2023-03-31T14:30:46.886Z,97460.56
2023-03-31T14:33:32.972Z,97474.19
2023-03-31T14:36:15.947Z,97453.91
2023-03-31T14:38:49.073Z,97471.56
2023-03-31T14:41:29.585Z,97471.69
2023-03-31T14:44:04.046Z,97478.66
2023-03-31T14:46:39.528Z,97489.66
2023-03-31T14:49:21.732Z,97495.38
2023-03-31T14:51:56.224Z,97491.34
2023-03-31T14:54:29.057Z,97479.66
2023-03-31T14:57:04.490Z,97473.13
2023-03-31T14:59:38.387Z,97465.81
2023-03-31T15:02:16.477Z,97478.94
2023-03-31T15:04:51.984Z,97472.19
2023-03-31T15:07:27.916Z,97466.66
2023-03-31T15:10:01.828Z,97473.66
2023-03-31T15:12:38.236Z,97473.22
2023-03-31T15:15:14.893Z,97484.00
2023-03-31T15:17:49.343Z,97490.50
2023-03-31T15:20:28.438Z,97488.69
2023-03-31T15:23:01.503Z,97490.66
2023-03-31T15:25:39.266Z,97491.72
2023-03-31T15:28:17.792Z,97494.09
2023-03-31T15:31:03.473Z,97470.63
2023-03-31T15:33:43.204Z,97466.56
2023-03-31T15:36:16.937Z,97462.34
2023-03-31T15:38:57.771Z,97470.72
2023-03-31T15:41:32.288Z,97451.63
2023-03-31T15:44:08.749Z,97460.09
2023-03-31T15:46:56.467Z,97464.59
2023-03-31T15:49:30.495Z,97471.28
2023-03-31T15:52:03.519Z,97460.06
2023-03-31T15:54:39.247Z,97462.25
2023-03-31T15:57:19.425Z,97451.34
2023-03-31T15:59:57.113Z,97475.78
2023-03-31T16:02:41.745Z,97471.84
2023-03-31T16:05:32.404Z,97491.28
2023-03-31T16:08:13.184Z,97489.56
2023-03-31T16:10:46.557Z,97491.88
2023-03-31T16:13:23.413Z,97495.34
2023-03-31T16:15:58.851Z,97493.03
2023-03-31T16:18:35.923Z,97506.94
2023-03-31T16:21:10.831Z,97519.47
2023-03-31T16:23:45.385Z,97511.72
2023-03-31T16:26:22.604Z,97492.19
2023-03-31T16:28:57.740Z,97503.25
2023-03-31T16:31:37.752Z,97499.44
2023-03-31T16:34:12.629Z,97503.38
2023-03-31T16:36:45.485Z,97512.59
2023-03-31T16:39:26.520Z,97519.00
2023-03-31T16:42:00.116Z,97507.63
2023-03-31T16:44:33.071Z,97516.88
2023-03-31T16:47:07.251Z,97509.06
2023-03-31T16:49:40.631Z,97509.63
2023-03-31T16:52:13.589Z,97501.13
2023-03-31T16:54:46.778Z,97502.19
2023-03-31T16:57:20.903Z,97498.53
2023-03-31T16:59:54.732Z,97503.34
2023-03-31T17:02:36.854Z,97498.06
2023-03-31T17:05:17.523Z,97493.44
2023-03-31T17:07:50.425Z,97497.53
2023-03-31T17:10:23.481Z,97492.75
2023-03-31T17:12:56.504Z,97494.81
2023-03-31T17:15:30.597Z,97502.06
2023-03-31T17:18:05.381Z,97491.09
2023-03-31T17:20:38.524Z,97491.31
2023-03-31T17:23:12.010Z,97497.53
2023-03-31T17:25:48.920Z,97497.06
2023-03-31T17:28:22.372Z,97495.50
2023-03-31T17:30:55.318Z,97498.47
2023-03-31T17:33:29.645Z,97505.91
2023-03-31T17:36:07.955Z,97508.53
2023-03-31T17:38:42.170Z,97510.09
2023-03-31T17:41:18.018Z,97509.78
2023-03-31T17:43:51.176Z,97508.09
2023-03-31T17:46:24.805Z,97499.91
2023-03-31T17:48:59.603Z,97497.69
2023-03-31T17:51:34.605Z,97496.91
2023-03-31T17:54:07.589Z,97499.25
2023-03-31T17:56:41.621Z,97500.34
2023-03-31T17:59:14.332Z,97489.03
2023-03-31T18:01:48.171Z,97491.84
2023-03-31T18:04:22.489Z,97485.38
2023-03-31T18:06:55.297Z,97494.19
2023-03-31T18:09:28.178Z,97488.75
2023-03-31T18:12:01.452Z,97503.50
2023-03-31T18:14:34.710Z,97499.91
2023-03-31T18:17:07.678Z,97504.88
2023-03-31T18:19:41.976Z,97512.47
2023-03-31T18:22:14.781Z,97513.97
2023-03-31T18:24:47.617Z,97515.75
2023-03-31T18:27:21.665Z,97515.25
2023-03-31T18:29:55.871Z,97518.81
2023-03-31T18:32:29.088Z,97522.97
2023-03-31T18:35:03.566Z,97528.25
2023-03-31T18:37:36.431Z,97538.97
2023-03-31T18:40:10.923Z,97538.16
2023-03-31T18:42:44.022Z,97530.53
2023-03-31T18:45:17.242Z,97538.66
2023-03-31T18:47:50.788Z,97530.28
2023-03-31T18:50:26.057Z,97528.56
2023-03-31T18:52:59.455Z,97533.06
2023-03-31T18:55:32.478Z,97538.38
2023-03-31T18:58:05.438Z,97546.31
2023-03-31T19:00:39.717Z,97550.38
2023-03-31T19:03:13.723Z,97551.13
2023-03-31T19:05:48.646Z,97553.78
2023-03-31T19:08:21.726Z,97557.66
2023-03-31T19:11:04.237Z,97557.97
2023-03-31T19:13:38.292Z,97556.44
2023-03-31T19:16:11.634Z,97552.41
2023-03-31T19:18:44.689Z,97555.66
2023-03-31T19:21:19.744Z,97566.22
2023-03-31T19:23:52.713Z,97568.53
2023-03-31T19:26:28.333Z,97569.16
2023-03-31T19:29:02.176Z,97565.94
2023-03-31T19:31:38.460Z,97573.53
2023-03-31T19:34:12.379Z,97573.53
2023-03-31T19:36:46.732Z,97577.13
2023-03-31T19:39:20.948Z,97569.50
2023-03-31T19:41:53.740Z,97580.97
2023-03-31T19:44:26.619Z,97569.75
2023-03-31T19:46:59.724Z,97572.06
2023-03-31T19:49:32.642Z,97569.09
2023-03-31T19:52:06.923Z,97575.16
2023-03-31T19:54:40.264Z,97580.13
2023-03-31T19:57:13.878Z,97575.78
2023-03-31T19:59:46.796Z,97574.84
2023-03-31T20:02:20.479Z,97573.91
2023-03-31T20:04:53.948Z,97573.16
2023-03-31T20:07:28.658Z,97568.50
2023-03-31T20:10:01.496Z,97566.78
2023-03-31T20:12:34.709Z,97564.41
2023-03-31T20:15:08.652Z,97569.06
2023-03-31T20:17:41.563Z,97567.19
2023-03-31T20:20:14.369Z,97569.81
2023-03-31T20:22:48.724Z,97560.31
2023-03-31T20:25:21.912Z,97568.38
2023-03-31T20:27:54.685Z,97560.50
2023-03-31T20:30:27.566Z,97571.03
2023-03-31T20:33:00.734Z,97570.44
2023-03-31T20:35:34.014Z,97565.13
2023-03-31T20:38:08.255Z,97575.03
2023-03-31T20:40:41.048Z,97577.84
2023-03-31T20:43:13.951Z,97587.59
2023-03-31T20:45:46.816Z,97577.94
2023-03-31T20:48:19.935Z,97568.38
2023-03-31T20:50:52.992Z,97571.66
2023-03-31T20:53:27.257Z,97562.50
2023-03-31T20:56:00.195Z,97567.47
2023-03-31T20:58:33.335Z,97576.13
2023-03-31T21:01:07.057Z,97570.75
2023-03-31T21:03:40.359Z,97577.53
2023-03-31T21:06:15.715Z,97570.56
2023-03-31T21:08:54.380Z,97572.44
2023-03-31T21:11:27.688Z,97579.91
2023-03-31T21:14:00.595Z,97575.28
2023-03-31T21:16:34.162Z,97572.28
2023-03-31T21:19:07.300Z,97576.59
2023-03-31T21:21:41.629Z,97575.53
2023-03-31T21:24:16.423Z,97579.50
2023-03-31T21:26:49.503Z,97586.38
2023-03-31T21:29:22.395Z,97576.78
2023-03-31T21:31:55.259Z,97575.06
2023-03-31T21:34:28.155Z,97577.84
2023-03-31T21:37:01.532Z,97580.63
2023-03-31T21:39:36.098Z,97576.63
2023-03-31T21:42:08.894Z,97577.03
2023-03-31T21:44:42.465Z,97573.84
2023-03-31T21:47:15.415Z,97572.56
2023-03-31T21:49:48.365Z,97571.03
2023-03-31T21:52:21.488Z,97571.97
2023-03-31T21:54:56.317Z,97575.03
2023-03-31T21:57:29.386Z,97575.66
2023-03-31T22:00:02.533Z,97585.41
2023-03-31T22:02:37.501Z,97568.25
2023-03-31T22:05:11.050Z,97573.53
2023-03-31T22:07:43.850Z,97578.78
2023-03-31T22:10:18.306Z,97579.81
2023-03-31T22:12:51.706Z,97576.94
2023-03-31T22:15:25.147Z,97586.97
2023-03-31T22:17:58.650Z,97585.88
2023-03-31T22:20:32.436Z,97588.19
2023-03-31T22:23:05.723Z,97595.16
2023-03-31T22:25:40.260Z,97597.94
2023-03-31T22:28:13.920Z,97591.34
2023-03-31T22:30:47.297Z,97592.25
2023-03-31T22:33:20.110Z,97601.50
2023-03-31T22:35:52.943Z,97609.25
2023-03-31T22:38:25.893Z,97609.59
2023-03-31T22:41:00.662Z,97608.03
2023-03-31T22:43:33.947Z,97602.16
2023-03-31T22:46:08.334Z,97608.03
2023-03-31T22:48:41.188Z,97606.78
2023-03-31T22:51:14.455Z,97608.13
2023-03-31T22:53:51.057Z,97603.34
2023-03-31T22:56:25.952Z,97610.59
2023-03-31T22:58:59.517Z,97608.44
2023-03-31T23:01:32.749Z,97603.19
2023-03-31T23:04:06.764Z,97595.47
2023-03-31T23:06:39.915Z,97597.63
2023-03-31T23:09:12.702Z,97603.81
2023-03-31T23:11:47.415Z,97608.00
2023-03-31T23:14:20.419Z,97605.25
2023-03-31T23:16:53.242Z,97596.41
2023-03-31T23:19:26.169Z,97600.75
2023-03-31T23:22:02.179Z,97601.25
2023-03-31T23:24:35.201Z,97605.25
2023-03-31T23:27:09.599Z,97600.47
2023-03-31T23:29:42.560Z,97594.91
2023-03-31T23:32:15.773Z,97603.44
2023-03-31T23:34:48.626Z,97593.38
2023-03-31T23:37:21.431Z,97592.13
2023-03-31T23:39:54.295Z,97591.19
2023-03-31T23:42:28.476Z,97593.53
2023-03-31T23:45:01.637Z,97592.16
2023-03-31T23:47:34.805Z,97608.09
2023-03-31T23:50:09.214Z,97596.78
2023-03-31T23:52:42.062Z,97598.81
2023-03-31T23:55:14.974Z,97584.41
2023-03-31T23:57:49.312Z,97592.59
